sensor_id;sensor_type;location;lat;lon;timestamp;P1;durP1;ratioP1;P2;durP2;ratioP2
37903;SDS011;23738;50.422;18.758;2023-10-31T00:01:15;14.80;;;8.00;;
37903;SDS011;23738;50.422;18.758;2023-10-31T00:03:44;12.00;;;8.30;;
37903;SDS011;23738;50.422;18.758;2023-10-31T00:06:14;20.80;;;9.60;;
37903;SDS011;23738;50.422;18.758;2023-10-31T00:08:43;17.70;;;9.30;;
37903;SDS011;23738;50.422;18.758;2023-10-31T00:11:13;21.50;;;10.60;;
37903;SDS011;23738;50.422;18.758;2023-10-31T00:13:42;14.40;;;9.20;;
37903;SDS011;23738;50.422;18.758;2023-10-31T00:16:11;13.00;;;6.70;;
37903;SDS011;23738;50.422;18.758;2023-10-31T00:18:41;12.20;;;6.80;;
37903;SDS011;23738;50.422;18.758;2023-10-31T00:21:10;11.30;;;7.60;;
37903;SDS011;23738;50.422;18.758;2023-10-31T00:23:43;13.10;;;7.60;;
37903;SDS011;23738;50.422;18.758;2023-10-31T00:26:13;10.70;;;6.90;;
37903;SDS011;23738;50.422;18.758;2023-10-31T00:28:43;13.00;;;6.90;;
37903;SDS011;23738;50.422;18.758;2023-10-31T00:31:12;14.80;;;7.30;;
37903;SDS011;23738;50.422;18.758;2023-10-31T00:33:42;15.10;;;6.30;;
37903;SDS011;23738;50.422;18.758;2023-10-31T00:36:11;11.60;;;6.60;;
37903;SDS011;23738;50.422;18.758;2023-10-31T00:38:41;14.70;;;7.60;;
37903;SDS011;23738;50.422;18.758;2023-10-31T00:41:11;16.90;;;6.90;;
37903;SDS011;23738;50.422;18.758;2023-10-31T00:43:40;11.80;;;7.70;;
37903;SDS011;23738;50.422;18.758;2023-10-31T00:46:10;10.20;;;5.70;;
37903;SDS011;23738;50.422;18.758;2023-10-31T00:48:39;12.70;;;5.60;;
37903;SDS011;23738;50.422;18.758;2023-10-31T00:51:08;11.00;;;4.80;;
37903;SDS011;23738;50.422;18.758;2023-10-31T00:53:38;8.00;;;4.40;;
37903;SDS011;23738;50.422;18.758;2023-10-31T00:56:07;6.60;;;3.80;;
37903;SDS011;23738;50.422;18.758;2023-10-31T00:58:37;7.00;;;3.10;;
37903;SDS011;23738;50.422;18.758;2023-10-31T01:01:06;6.70;;;2.60;;
37903;SDS011;23738;50.422;18.758;2023-10-31T01:03:36;4.80;;;2.40;;
37903;SDS011;23738;50.422;18.758;2023-10-31T01:06:06;5.40;;;3.40;;
37903;SDS011;23738;50.422;18.758;2023-10-31T01:08:35;6.40;;;3.00;;
37903;SDS011;23738;50.422;18.758;2023-10-31T01:11:05;10.40;;;3.00;;
37903;SDS011;23738;50.422;18.758;2023-10-31T01:13:34;8.20;;;3.40;;
37903;SDS011;23738;50.422;18.758;2023-10-31T01:16:04;8.20;;;2.80;;
37903;SDS011;23738;50.422;18.758;2023-10-31T01:18:35;5.00;;;3.00;;
37903;SDS011;23738;50.422;18.758;2023-10-31T01:21:04;6.90;;;3.40;;
37903;SDS011;23738;50.422;18.758;2023-10-31T01:23:35;6.20;;;3.70;;
37903;SDS011;23738;50.422;18.758;2023-10-31T01:26:05;6.80;;;3.80;;
37903;SDS011;23738;50.422;18.758;2023-10-31T01:28:34;7.50;;;3.50;;
37903;SDS011;23738;50.422;18.758;2023-10-31T01:31:04;7.30;;;2.80;;
37903;SDS011;23738;50.422;18.758;2023-10-31T01:33:35;8.70;;;2.20;;
37903;SDS011;23738;50.422;18.758;2023-10-31T01:36:05;4.30;;;2.20;;
37903;SDS011;23738;50.422;18.758;2023-10-31T01:38:38;6.00;;;2.20;;
37903;SDS011;23738;50.422;18.758;2023-10-31T01:41:08;5.70;;;2.50;;
37903;SDS011;23738;50.422;18.758;2023-10-31T01:43:38;4.30;;;2.10;;
37903;SDS011;23738;50.422;18.758;2023-10-31T01:46:07;6.10;;;2.40;;
37903;SDS011;23738;50.422;18.758;2023-10-31T01:48:37;4.40;;;2.20;;
37903;SDS011;23738;50.422;18.758;2023-10-31T01:51:08;5.70;;;2.60;;
37903;SDS011;23738;50.422;18.758;2023-10-31T01:53:39;5.20;;;2.00;;
37903;SDS011;23738;50.422;18.758;2023-10-31T01:56:09;4.70;;;1.80;;
37903;SDS011;23738;50.422;18.758;2023-10-31T01:58:38;3.90;;;1.60;;
37903;SDS011;23738;50.422;18.758;2023-10-31T02:01:10;4.70;;;2.20;;
37903;SDS011;23738;50.422;18.758;2023-10-31T02:03:39;17.50;;;2.10;;
37903;SDS011;23738;50.422;18.758;2023-10-31T02:06:09;8.30;;;1.60;;
37903;SDS011;23738;50.422;18.758;2023-10-31T02:08:38;6.50;;;1.70;;
37903;SDS011;23738;50.422;18.758;2023-10-31T02:11:08;6.30;;;1.70;;
37903;SDS011;23738;50.422;18.758;2023-10-31T02:13:37;5.70;;;1.70;;
37903;SDS011;23738;50.422;18.758;2023-10-31T02:16:07;4.00;;;1.50;;
37903;SDS011;23738;50.422;18.758;2023-10-31T02:18:36;3.40;;;1.40;;
37903;SDS011;23738;50.422;18.758;2023-10-31T02:21:06;2.40;;;1.00;;
37903;SDS011;23738;50.422;18.758;2023-10-31T02:23:36;4.60;;;1.40;;
37903;SDS011;23738;50.422;18.758;2023-10-31T02:26:06;5.00;;;1.50;;
37903;SDS011;23738;50.422;18.758;2023-10-31T02:28:35;4.40;;;1.50;;
37903;SDS011;23738;50.422;18.758;2023-10-31T02:31:05;3.80;;;1.60;;
37903;SDS011;23738;50.422;18.758;2023-10-31T02:33:35;3.20;;;1.40;;
37903;SDS011;23738;50.422;18.758;2023-10-31T02:36:07;3.80;;;1.30;;
37903;SDS011;23738;50.422;18.758;2023-10-31T02:38:37;8.60;;;1.40;;
37903;SDS011;23738;50.422;18.758;2023-10-31T02:41:06;4.50;;;1.20;;
37903;SDS011;23738;50.422;18.758;2023-10-31T02:43:37;5.50;;;1.40;;
37903;SDS011;23738;50.422;18.758;2023-10-31T02:46:07;8.60;;;1.40;;
37903;SDS011;23738;50.422;18.758;2023-10-31T02:48:38;2.40;;;1.30;;
37903;SDS011;23738;50.422;18.758;2023-10-31T02:51:08;2.60;;;1.40;;
37903;SDS011;23738;50.422;18.758;2023-10-31T02:53:38;6.20;;;1.60;;
37903;SDS011;23738;50.422;18.758;2023-10-31T02:56:08;4.30;;;1.10;;
37903;SDS011;23738;50.422;18.758;2023-10-31T02:58:37;3.30;;;1.30;;
37903;SDS011;23738;50.422;18.758;2023-10-31T03:01:07;4.70;;;1.50;;
37903;SDS011;23738;50.422;18.758;2023-10-31T03:03:36;1.90;;;1.20;;
37903;SDS011;23738;50.422;18.758;2023-10-31T03:06:06;4.80;;;1.50;;
37903;SDS011;23738;50.422;18.758;2023-10-31T03:08:36;3.60;;;1.70;;
37903;SDS011;23738;50.422;18.758;2023-10-31T03:11:05;7.20;;;1.50;;
37903;SDS011;23738;50.422;18.758;2023-10-31T03:13:35;6.40;;;1.50;;
37903;SDS011;23738;50.422;18.758;2023-10-31T03:16:04;3.40;;;1.30;;
37903;SDS011;23738;50.422;18.758;2023-10-31T03:18:34;6.40;;;1.50;;
37903;SDS011;23738;50.422;18.758;2023-10-31T03:21:04;3.70;;;1.60;;
37903;SDS011;23738;50.422;18.758;2023-10-31T03:23:33;4.00;;;1.30;;
37903;SDS011;23738;50.422;18.758;2023-10-31T03:26:03;2.30;;;1.20;;
37903;SDS011;23738;50.422;18.758;2023-10-31T03:28:32;3.90;;;1.80;;
37903;SDS011;23738;50.422;18.758;2023-10-31T03:31:02;4.20;;;1.30;;
37903;SDS011;23738;50.422;18.758;2023-10-31T03:33:31;3.20;;;1.40;;
37903;SDS011;23738;50.422;18.758;2023-10-31T03:36:01;3.10;;;1.30;;
37903;SDS011;23738;50.422;18.758;2023-10-31T03:38:31;3.70;;;1.30;;
37903;SDS011;23738;50.422;18.758;2023-10-31T03:41:01;6.30;;;1.40;;
37903;SDS011;23738;50.422;18.758;2023-10-31T03:43:31;5.20;;;1.40;;
37903;SDS011;23738;50.422;18.758;2023-10-31T03:46:00;6.20;;;1.20;;
37903;SDS011;23738;50.422;18.758;2023-10-31T03:48:30;6.20;;;1.40;;
37903;SDS011;23738;50.422;18.758;2023-10-31T03:50:59;5.30;;;1.30;;
37903;SDS011;23738;50.422;18.758;2023-10-31T03:53:29;3.40;;;1.30;;
37903;SDS011;23738;50.422;18.758;2023-10-31T03:55:59;4.50;;;1.50;;
37903;SDS011;23738;50.422;18.758;2023-10-31T03:58:29;3.10;;;1.50;;
37903;SDS011;23738;50.422;18.758;2023-10-31T04:00:58;4.30;;;1.50;;
37903;SDS011;23738;50.422;18.758;2023-10-31T04:03:27;7.50;;;1.50;;
37903;SDS011;23738;50.422;18.758;2023-10-31T04:05:57;7.50;;;1.40;;
37903;SDS011;23738;50.422;18.758;2023-10-31T04:08:26;4.80;;;1.50;;
37903;SDS011;23738;50.422;18.758;2023-10-31T04:10:55;4.70;;;1.40;;
37903;SDS011;23738;50.422;18.758;2023-10-31T04:13:25;4.20;;;1.60;;
37903;SDS011;23738;50.422;18.758;2023-10-31T04:15:54;5.10;;;1.70;;
37903;SDS011;23738;50.422;18.758;2023-10-31T04:18:23;2.30;;;1.40;;
37903;SDS011;23738;50.422;18.758;2023-10-31T04:20:53;3.50;;;1.80;;
37903;SDS011;23738;50.422;18.758;2023-10-31T04:23:22;3.90;;;1.80;;
37903;SDS011;23738;50.422;18.758;2023-10-31T04:25:52;5.90;;;1.80;;
37903;SDS011;23738;50.422;18.758;2023-10-31T04:28:21;4.50;;;1.60;;
37903;SDS011;23738;50.422;18.758;2023-10-31T04:30:50;4.50;;;1.80;;
37903;SDS011;23738;50.422;18.758;2023-10-31T04:33:20;3.70;;;1.50;;
37903;SDS011;23738;50.422;18.758;2023-10-31T04:35:49;2.90;;;1.60;;
37903;SDS011;23738;50.422;18.758;2023-10-31T04:38:18;6.10;;;1.40;;
37903;SDS011;23738;50.422;18.758;2023-10-31T04:40:48;4.40;;;1.70;;
37903;SDS011;23738;50.422;18.758;2023-10-31T04:43:17;9.30;;;1.40;;
37903;SDS011;23738;50.422;18.758;2023-10-31T04:45:46;8.10;;;1.50;;
37903;SDS011;23738;50.422;18.758;2023-10-31T04:48:16;4.10;;;1.60;;
37903;SDS011;23738;50.422;18.758;2023-10-31T04:50:46;3.00;;;1.70;;
37903;SDS011;23738;50.422;18.758;2023-10-31T04:53:16;2.90;;;1.50;;
37903;SDS011;23738;50.422;18.758;2023-10-31T04:55:45;7.50;;;1.70;;
37903;SDS011;23738;50.422;18.758;2023-10-31T04:58:15;4.40;;;1.40;;
37903;SDS011;23738;50.422;18.758;2023-10-31T05:00:44;4.70;;;1.40;;
37903;SDS011;23738;50.422;18.758;2023-10-31T05:03:14;6.90;;;1.90;;
37903;SDS011;23738;50.422;18.758;2023-10-31T05:05:44;9.00;;;1.70;;
37903;SDS011;23738;50.422;18.758;2023-10-31T05:08:13;3.50;;;1.60;;
37903;SDS011;23738;50.422;18.758;2023-10-31T05:10:43;2.30;;;1.40;;
37903;SDS011;23738;50.422;18.758;2023-10-31T05:13:14;7.90;;;1.90;;
37903;SDS011;23738;50.422;18.758;2023-10-31T05:15:43;3.10;;;1.50;;
37903;SDS011;23738;50.422;18.758;2023-10-31T05:18:13;3.70;;;1.40;;
37903;SDS011;23738;50.422;18.758;2023-10-31T05:20:42;2.50;;;1.20;;
37903;SDS011;23738;50.422;18.758;2023-10-31T05:23:12;5.60;;;1.90;;
37903;SDS011;23738;50.422;18.758;2023-10-31T05:25:41;4.60;;;1.50;;
37903;SDS011;23738;50.422;18.758;2023-10-31T05:28:11;4.20;;;1.50;;
37903;SDS011;23738;50.422;18.758;2023-10-31T05:30:40;6.30;;;1.50;;
37903;SDS011;23738;50.422;18.758;2023-10-31T05:33:10;3.70;;;1.40;;
37903;SDS011;23738;50.422;18.758;2023-10-31T05:35:42;8.80;;;1.30;;
37903;SDS011;23738;50.422;18.758;2023-10-31T05:38:11;6.90;;;2.00;;
37903;SDS011;23738;50.422;18.758;2023-10-31T05:40:41;4.20;;;1.50;;
37903;SDS011;23738;50.422;18.758;2023-10-31T05:43:10;4.30;;;2.20;;
37903;SDS011;23738;50.422;18.758;2023-10-31T05:45:39;5.40;;;3.30;;
37903;SDS011;23738;50.422;18.758;2023-10-31T05:48:09;7.60;;;4.20;;
37903;SDS011;23738;50.422;18.758;2023-10-31T05:50:41;11.90;;;3.80;;
37903;SDS011;23738;50.422;18.758;2023-10-31T05:53:10;6.20;;;5.20;;
37903;SDS011;23738;50.422;18.758;2023-10-31T05:55:40;12.80;;;3.60;;
37903;SDS011;23738;50.422;18.758;2023-10-31T05:58:09;3.90;;;2.70;;
37903;SDS011;23738;50.422;18.758;2023-10-31T06:00:39;5.60;;;4.00;;
37903;SDS011;23738;50.422;18.758;2023-10-31T06:03:08;6.40;;;3.20;;
37903;SDS011;23738;50.422;18.758;2023-10-31T06:05:38;3.90;;;2.30;;
37903;SDS011;23738;50.422;18.758;2023-10-31T06:08:07;3.50;;;1.70;;
37903;SDS011;23738;50.422;18.758;2023-10-31T06:10:37;4.50;;;1.90;;
37903;SDS011;23738;50.422;18.758;2023-10-31T06:13:06;5.20;;;1.80;;
37903;SDS011;23738;50.422;18.758;2023-10-31T06:15:35;4.50;;;1.90;;
37903;SDS011;23738;50.422;18.758;2023-10-31T06:18:05;8.40;;;2.50;;
37903;SDS011;23738;50.422;18.758;2023-10-31T06:20:34;5.10;;;1.80;;
37903;SDS011;23738;50.422;18.758;2023-10-31T06:23:04;9.30;;;1.90;;
37903;SDS011;23738;50.422;18.758;2023-10-31T06:25:33;3.80;;;2.10;;
37903;SDS011;23738;50.422;18.758;2023-10-31T06:28:03;4.30;;;2.10;;
37903;SDS011;23738;50.422;18.758;2023-10-31T06:30:32;3.50;;;1.90;;
37903;SDS011;23738;50.422;18.758;2023-10-31T06:33:02;4.60;;;1.90;;
37903;SDS011;23738;50.422;18.758;2023-10-31T06:35:34;5.00;;;2.00;;
37903;SDS011;23738;50.422;18.758;2023-10-31T06:38:04;4.30;;;1.70;;
37903;SDS011;23738;50.422;18.758;2023-10-31T06:40:33;6.00;;;1.70;;
37903;SDS011;23738;50.422;18.758;2023-10-31T06:43:02;5.30;;;2.00;;
37903;SDS011;23738;50.422;18.758;2023-10-31T06:45:32;6.50;;;1.70;;
37903;SDS011;23738;50.422;18.758;2023-10-31T06:48:01;4.90;;;1.70;;
37903;SDS011;23738;50.422;18.758;2023-10-31T06:50:33;4.80;;;1.80;;
37903;SDS011;23738;50.422;18.758;2023-10-31T06:53:02;3.40;;;1.40;;
37903;SDS011;23738;50.422;18.758;2023-10-31T06:55:32;3.20;;;1.80;;
37903;SDS011;23738;50.422;18.758;2023-10-31T06:58:03;7.40;;;2.50;;
37903;SDS011;23738;50.422;18.758;2023-10-31T07:00:32;3.60;;;1.50;;
37903;SDS011;23738;50.422;18.758;2023-10-31T07:03:01;4.80;;;1.40;;
37903;SDS011;23738;50.422;18.758;2023-10-31T07:05:35;9.10;;;2.30;;
37903;SDS011;23738;50.422;18.758;2023-10-31T07:08:06;6.90;;;2.00;;
37903;SDS011;23738;50.422;18.758;2023-10-31T07:10:36;3.60;;;1.70;;
37903;SDS011;23738;50.422;18.758;2023-10-31T07:13:06;4.50;;;1.90;;
37903;SDS011;23738;50.422;18.758;2023-10-31T07:15:35;2.50;;;1.70;;
37903;SDS011;23738;50.422;18.758;2023-10-31T07:18:06;4.40;;;1.60;;
37903;SDS011;23738;50.422;18.758;2023-10-31T07:20:35;4.20;;;1.50;;
37903;SDS011;23738;50.422;18.758;2023-10-31T07:23:04;5.40;;;1.60;;
37903;SDS011;23738;50.422;18.758;2023-10-31T07:25:34;3.60;;;1.90;;
37903;SDS011;23738;50.422;18.758;2023-10-31T07:28:03;2.40;;;1.50;;
37903;SDS011;23738;50.422;18.758;2023-10-31T07:30:33;6.20;;;1.60;;
37903;SDS011;23738;50.422;18.758;2023-10-31T07:33:02;8.00;;;2.40;;
37903;SDS011;23738;50.422;18.758;2023-10-31T07:35:32;4.00;;;2.10;;
37903;SDS011;23738;50.422;18.758;2023-10-31T07:38:01;3.80;;;1.30;;
37903;SDS011;23738;50.422;18.758;2023-10-31T07:40:30;6.00;;;1.70;;
37903;SDS011;23738;50.422;18.758;2023-10-31T07:43:00;4.50;;;1.80;;
37903;SDS011;23738;50.422;18.758;2023-10-31T07:45:29;5.80;;;1.70;;
37903;SDS011;23738;50.422;18.758;2023-10-31T07:47:59;3.40;;;1.70;;
37903;SDS011;23738;50.422;18.758;2023-10-31T07:50:28;5.10;;;2.40;;
37903;SDS011;23738;50.422;18.758;2023-10-31T07:52:58;7.30;;;2.20;;
37903;SDS011;23738;50.422;18.758;2023-10-31T07:55:27;8.10;;;2.00;;
37903;SDS011;23738;50.422;18.758;2023-10-31T07:57:57;5.30;;;1.80;;
37903;SDS011;23738;50.422;18.758;2023-10-31T08:00:26;5.70;;;2.10;;
37903;SDS011;23738;50.422;18.758;2023-10-31T08:02:57;3.10;;;2.00;;
37903;SDS011;23738;50.422;18.758;2023-10-31T08:05:26;5.10;;;2.60;;
37903;SDS011;23738;50.422;18.758;2023-10-31T08:07:56;6.30;;;2.20;;
37903;SDS011;23738;50.422;18.758;2023-10-31T08:10:25;7.20;;;2.50;;
37903;SDS011;23738;50.422;18.758;2023-10-31T08:12:55;7.60;;;2.20;;
37903;SDS011;23738;50.422;18.758;2023-10-31T08:15:24;5.10;;;2.50;;
37903;SDS011;23738;50.422;18.758;2023-10-31T08:17:54;5.50;;;2.90;;
37903;SDS011;23738;50.422;18.758;2023-10-31T08:20:23;3.90;;;2.30;;
37903;SDS011;23738;50.422;18.758;2023-10-31T08:22:53;4.40;;;2.80;;
37903;SDS011;23738;50.422;18.758;2023-10-31T08:25:22;4.80;;;2.60;;
37903;SDS011;23738;50.422;18.758;2023-10-31T08:27:51;5.30;;;3.30;;
37903;SDS011;23738;50.422;18.758;2023-10-31T08:30:21;6.30;;;3.50;;
37903;SDS011;23738;50.422;18.758;2023-10-31T08:32:50;13.70;;;3.60;;
37903;SDS011;23738;50.422;18.758;2023-10-31T08:35:20;5.60;;;3.70;;
37903;SDS011;23738;50.422;18.758;2023-10-31T08:37:49;5.50;;;2.30;;
37903;SDS011;23738;50.422;18.758;2023-10-31T08:40:19;5.20;;;2.30;;
37903;SDS011;23738;50.422;18.758;2023-10-31T08:42:48;4.80;;;2.20;;
37903;SDS011;23738;50.422;18.758;2023-10-31T08:45:18;5.70;;;2.30;;
37903;SDS011;23738;50.422;18.758;2023-10-31T08:47:48;4.50;;;2.70;;
37903;SDS011;23738;50.422;18.758;2023-10-31T08:50:17;9.50;;;3.20;;
37903;SDS011;23738;50.422;18.758;2023-10-31T08:52:47;6.20;;;2.80;;
37903;SDS011;23738;50.422;18.758;2023-10-31T08:55:16;5.40;;;2.70;;
37903;SDS011;23738;50.422;18.758;2023-10-31T08:57:46;6.30;;;3.10;;
37903;SDS011;23738;50.422;18.758;2023-10-31T09:00:17;3.40;;;2.60;;
37903;SDS011;23738;50.422;18.758;2023-10-31T09:02:47;5.60;;;2.10;;
37903;SDS011;23738;50.422;18.758;2023-10-31T09:05:16;3.70;;;2.30;;
37903;SDS011;23738;50.422;18.758;2023-10-31T09:07:46;2.70;;;1.90;;
37903;SDS011;23738;50.422;18.758;2023-10-31T09:10:15;3.40;;;1.70;;
37903;SDS011;23738;50.422;18.758;2023-10-31T09:12:45;4.30;;;2.40;;
37903;SDS011;23738;50.422;18.758;2023-10-31T09:15:14;4.10;;;2.00;;
37903;SDS011;23738;50.422;18.758;2023-10-31T09:17:45;5.90;;;2.10;;
37903;SDS011;23738;50.422;18.758;2023-10-31T09:20:15;5.10;;;2.10;;
37903;SDS011;23738;50.422;18.758;2023-10-31T09:22:44;3.50;;;1.80;;
37903;SDS011;23738;50.422;18.758;2023-10-31T09:25:13;5.80;;;2.00;;
37903;SDS011;23738;50.422;18.758;2023-10-31T09:27:43;5.20;;;1.90;;
37903;SDS011;23738;50.422;18.758;2023-10-31T09:30:12;5.40;;;1.20;;
37903;SDS011;23738;50.422;18.758;2023-10-31T09:32:43;4.00;;;1.30;;
37903;SDS011;23738;50.422;18.758;2023-10-31T09:35:13;4.80;;;1.20;;
37903;SDS011;23738;50.422;18.758;2023-10-31T09:37:43;3.00;;;1.50;;
37903;SDS011;23738;50.422;18.758;2023-10-31T09:40:15;4.70;;;1.20;;
37903;SDS011;23738;50.422;18.758;2023-10-31T09:42:45;3.10;;;1.50;;
37903;SDS011;23738;50.422;18.758;2023-10-31T09:45:16;2.50;;;1.60;;
37903;SDS011;23738;50.422;18.758;2023-10-31T09:47:46;3.20;;;1.60;;
37903;SDS011;23738;50.422;18.758;2023-10-31T09:50:15;3.00;;;1.60;;
37903;SDS011;23738;50.422;18.758;2023-10-31T09:52:45;1.90;;;1.10;;
37903;SDS011;23738;50.422;18.758;2023-10-31T09:55:15;4.00;;;1.10;;
37903;SDS011;23738;50.422;18.758;2023-10-31T09:57:46;3.70;;;1.10;;
37903;SDS011;23738;50.422;18.758;2023-10-31T10:00:16;2.40;;;0.90;;
37903;SDS011;23738;50.422;18.758;2023-10-31T10:02:45;6.70;;;1.50;;
37903;SDS011;23738;50.422;18.758;2023-10-31T10:05:16;6.60;;;1.00;;
37903;SDS011;23738;50.422;18.758;2023-10-31T10:07:46;1.90;;;1.20;;
37903;SDS011;23738;50.422;18.758;2023-10-31T10:10:17;1.80;;;1.10;;
37903;SDS011;23738;50.422;18.758;2023-10-31T10:12:46;2.40;;;0.90;;
37903;SDS011;23738;50.422;18.758;2023-10-31T10:15:15;2.20;;;1.10;;
37903;SDS011;23738;50.422;18.758;2023-10-31T10:17:49;1.80;;;1.10;;
37903;SDS011;23738;50.422;18.758;2023-10-31T10:20:19;3.10;;;1.40;;
37903;SDS011;23738;50.422;18.758;2023-10-31T10:22:48;6.10;;;1.50;;
37903;SDS011;23738;50.422;18.758;2023-10-31T10:25:18;2.10;;;1.40;;
37903;SDS011;23738;50.422;18.758;2023-10-31T10:27:47;2.30;;;1.10;;
37903;SDS011;23738;50.422;18.758;2023-10-31T10:30:16;1.60;;;1.00;;
37903;SDS011;23738;50.422;18.758;2023-10-31T10:32:46;3.90;;;1.10;;
37903;SDS011;23738;50.422;18.758;2023-10-31T10:35:18;1.30;;;0.90;;
37903;SDS011;23738;50.422;18.758;2023-10-31T10:37:48;2.00;;;1.00;;
37903;SDS011;23738;50.422;18.758;2023-10-31T10:40:20;2.90;;;1.10;;
37903;SDS011;23738;50.422;18.758;2023-10-31T10:42:49;1.50;;;0.80;;
37903;SDS011;23738;50.422;18.758;2023-10-31T10:45:24;2.80;;;1.00;;
37903;SDS011;23738;50.422;18.758;2023-10-31T10:47:54;1.50;;;0.70;;
37903;SDS011;23738;50.422;18.758;2023-10-31T10:50:32;2.90;;;1.00;;
37903;SDS011;23738;50.422;18.758;2023-10-31T10:53:09;3.80;;;1.20;;
37903;SDS011;23738;50.422;18.758;2023-10-31T10:55:51;1.50;;;0.80;;
37903;SDS011;23738;50.422;18.758;2023-10-31T10:58:25;1.20;;;0.70;;
37903;SDS011;23738;50.422;18.758;2023-10-31T11:01:01;1.10;;;0.70;;
37903;SDS011;23738;50.422;18.758;2023-10-31T11:03:32;0.90;;;0.80;;
37903;SDS011;23738;50.422;18.758;2023-10-31T11:06:10;1.00;;;0.70;;
37903;SDS011;23738;50.422;18.758;2023-10-31T11:08:39;1.70;;;0.90;;
37903;SDS011;23738;50.422;18.758;2023-10-31T11:11:10;1.70;;;0.70;;
37903;SDS011;23738;50.422;18.758;2023-10-31T11:13:42;1.70;;;0.90;;
37903;SDS011;23738;50.422;18.758;2023-10-31T11:16:13;3.00;;;1.00;;
37903;SDS011;23738;50.422;18.758;2023-10-31T11:18:48;1.50;;;0.90;;
37903;SDS011;23738;50.422;18.758;2023-10-31T11:21:18;1.50;;;0.70;;
37903;SDS011;23738;50.422;18.758;2023-10-31T11:23:56;1.40;;;0.80;;
37903;SDS011;23738;50.422;18.758;2023-10-31T11:26:27;2.10;;;0.80;;
37903;SDS011;23738;50.422;18.758;2023-10-31T11:29:07;3.30;;;0.90;;
37903;SDS011;23738;50.422;18.758;2023-10-31T11:31:39;2.30;;;0.60;;
37903;SDS011;23738;50.422;18.758;2023-10-31T11:34:11;1.70;;;0.80;;
37903;SDS011;23738;50.422;18.758;2023-10-31T11:36:40;2.20;;;0.70;;
37903;SDS011;23738;50.422;18.758;2023-10-31T11:39:13;1.90;;;0.90;;
37903;SDS011;23738;50.422;18.758;2023-10-31T11:41:53;2.20;;;0.90;;
37903;SDS011;23738;50.422;18.758;2023-10-31T11:44:23;1.50;;;0.70;;
37903;SDS011;23738;50.422;18.758;2023-10-31T11:46:57;1.40;;;0.80;;
37903;SDS011;23738;50.422;18.758;2023-10-31T11:49:47;1.30;;;0.80;;
37903;SDS011;23738;50.422;18.758;2023-10-31T11:52:17;2.30;;;1.00;;
37903;SDS011;23738;50.422;18.758;2023-10-31T11:54:46;2.10;;;0.90;;
37903;SDS011;23738;50.422;18.758;2023-10-31T11:57:27;1.50;;;0.80;;
37903;SDS011;23738;50.422;18.758;2023-10-31T11:59:56;2.10;;;0.80;;
37903;SDS011;23738;50.422;18.758;2023-10-31T12:02:26;1.40;;;0.80;;
37903;SDS011;23738;50.422;18.758;2023-10-31T12:05:07;2.80;;;0.80;;
37903;SDS011;23738;50.422;18.758;2023-10-31T12:07:45;0.90;;;0.50;;
37903;SDS011;23738;50.422;18.758;2023-10-31T12:10:20;2.80;;;0.90;;
37903;SDS011;23738;50.422;18.758;2023-10-31T12:12:51;1.50;;;1.00;;
37903;SDS011;23738;50.422;18.758;2023-10-31T12:15:21;2.30;;;1.50;;
37903;SDS011;23738;50.422;18.758;2023-10-31T12:17:50;3.20;;;1.60;;
37903;SDS011;23738;50.422;18.758;2023-10-31T12:20:24;3.00;;;1.80;;
37903;SDS011;23738;50.422;18.758;2023-10-31T12:23:03;3.50;;;1.60;;
37903;SDS011;23738;50.422;18.758;2023-10-31T12:25:33;2.00;;;1.40;;
37903;SDS011;23738;50.422;18.758;2023-10-31T12:28:17;2.50;;;1.40;;
37903;SDS011;23738;50.422;18.758;2023-10-31T12:30:47;3.50;;;1.30;;
37903;SDS011;23738;50.422;18.758;2023-10-31T12:33:18;4.20;;;1.40;;
37903;SDS011;23738;50.422;18.758;2023-10-31T12:35:48;3.30;;;1.60;;
37903;SDS011;23738;50.422;18.758;2023-10-31T12:38:18;3.00;;;1.10;;
37903;SDS011;23738;50.422;18.758;2023-10-31T12:40:48;2.10;;;1.40;;
37903;SDS011;23738;50.422;18.758;2023-10-31T12:43:19;1.70;;;1.00;;
37903;SDS011;23738;50.422;18.758;2023-10-31T12:45:49;1.70;;;1.40;;
37903;SDS011;23738;50.422;18.758;2023-10-31T12:48:23;2.10;;;1.20;;
37903;SDS011;23738;50.422;18.758;2023-10-31T12:51:06;2.90;;;1.70;;
37903;SDS011;23738;50.422;18.758;2023-10-31T12:53:36;4.80;;;1.40;;
37903;SDS011;23738;50.422;18.758;2023-10-31T12:56:06;2.30;;;1.40;;
37903;SDS011;23738;50.422;18.758;2023-10-31T12:58:36;3.10;;;1.60;;
37903;SDS011;23738;50.422;18.758;2023-10-31T13:01:11;3.50;;;1.50;;
37903;SDS011;23738;50.422;18.758;2023-10-31T13:03:49;2.30;;;1.60;;
37903;SDS011;23738;50.422;18.758;2023-10-31T13:06:19;2.90;;;1.50;;
37903;SDS011;23738;50.422;18.758;2023-10-31T13:08:48;6.00;;;1.20;;
37903;SDS011;23738;50.422;18.758;2023-10-31T13:11:18;1.30;;;1.20;;
37903;SDS011;23738;50.422;18.758;2023-10-31T13:13:52;1.80;;;1.10;;
37903;SDS011;23738;50.422;18.758;2023-10-31T13:16:21;6.70;;;1.40;;
37903;SDS011;23738;50.422;18.758;2023-10-31T13:18:53;2.20;;;1.20;;
37903;SDS011;23738;50.422;18.758;2023-10-31T13:21:22;1.90;;;1.20;;
37903;SDS011;23738;50.422;18.758;2023-10-31T13:23:52;1.90;;;1.30;;
37903;SDS011;23738;50.422;18.758;2023-10-31T13:26:21;4.20;;;1.60;;
37903;SDS011;23738;50.422;18.758;2023-10-31T13:28:51;3.30;;;1.60;;
37903;SDS011;23738;50.422;18.758;2023-10-31T13:31:20;2.60;;;1.80;;
37903;SDS011;23738;50.422;18.758;2023-10-31T13:33:50;4.90;;;1.90;;
37903;SDS011;23738;50.422;18.758;2023-10-31T13:36:19;2.40;;;1.60;;
37903;SDS011;23738;50.422;18.758;2023-10-31T13:38:49;2.00;;;1.60;;
37903;SDS011;23738;50.422;18.758;2023-10-31T13:41:18;3.30;;;2.00;;
37903;SDS011;23738;50.422;18.758;2023-10-31T13:43:48;2.60;;;1.50;;
37903;SDS011;23738;50.422;18.758;2023-10-31T13:46:18;2.50;;;1.50;;
37903;SDS011;23738;50.422;18.758;2023-10-31T13:48:47;2.40;;;1.60;;
37903;SDS011;23738;50.422;18.758;2023-10-31T13:51:16;2.50;;;1.70;;
37903;SDS011;23738;50.422;18.758;2023-10-31T13:53:46;3.00;;;2.40;;
37903;SDS011;23738;50.422;18.758;2023-10-31T13:56:16;7.10;;;5.20;;
37903;SDS011;23738;50.422;18.758;2023-10-31T13:58:46;7.00;;;4.10;;
37903;SDS011;23738;50.422;18.758;2023-10-31T14:01:15;4.40;;;3.40;;
37903;SDS011;23738;50.422;18.758;2023-10-31T14:03:46;7.40;;;6.80;;
37903;SDS011;23738;50.422;18.758;2023-10-31T14:06:16;6.50;;;5.00;;
37903;SDS011;23738;50.422;18.758;2023-10-31T14:08:46;7.40;;;5.50;;
37903;SDS011;23738;50.422;18.758;2023-10-31T14:11:15;6.60;;;3.50;;
37903;SDS011;23738;50.422;18.758;2023-10-31T14:13:45;6.70;;;4.90;;
37903;SDS011;23738;50.422;18.758;2023-10-31T14:16:14;7.20;;;6.50;;
37903;SDS011;23738;50.422;18.758;2023-10-31T14:18:44;9.80;;;7.00;;
37903;SDS011;23738;50.422;18.758;2023-10-31T14:21:14;8.10;;;4.80;;
37903;SDS011;23738;50.422;18.758;2023-10-31T14:23:44;7.30;;;4.10;;
37903;SDS011;23738;50.422;18.758;2023-10-31T14:26:20;8.00;;;5.80;;
37903;SDS011;23738;50.422;18.758;2023-10-31T14:28:50;8.00;;;4.70;;
37903;SDS011;23738;50.422;18.758;2023-10-31T14:31:20;5.90;;;4.60;;
37903;SDS011;23738;50.422;18.758;2023-10-31T14:33:49;8.10;;;4.60;;
37903;SDS011;23738;50.422;18.758;2023-10-31T14:36:19;7.60;;;5.60;;
37903;SDS011;23738;50.422;18.758;2023-10-31T14:38:48;6.50;;;5.00;;
37903;SDS011;23738;50.422;18.758;2023-10-31T14:41:17;7.30;;;5.10;;
37903;SDS011;23738;50.422;18.758;2023-10-31T14:43:47;7.20;;;3.70;;
37903;SDS011;23738;50.422;18.758;2023-10-31T14:46:16;6.20;;;4.50;;
37903;SDS011;23738;50.422;18.758;2023-10-31T14:48:46;7.40;;;5.80;;
37903;SDS011;23738;50.422;18.758;2023-10-31T14:51:16;6.60;;;5.30;;